Time;durP1;ratioP1;P1;durP2;ratioP2;P2;SDS_P1;SDS_P2;PMS_P1;PMS_P2;Temp;Humidity;BMP_temperature;BMP_pressure;BME280_temperature;BME280_humidity;BME280_pressure;Samples;Min_cycle;Max_cycle;Signal;HPM_P1;HPM_P2
2021/06/13 00:01:24;;;;;;;0.35;0.35;;;;;;;15.06;87.68;98767.34;6130227;23;20025;-81
2021/06/13 00:03:50;;;;;;;0.30;0.30;;;;;;;15.11;87.44;98768.41;6154600;23;20061;-80
2021/06/13 00:06:16;;;;;;;0.30;0.30;;;;;;;15.16;87.11;98763.19;6155390;23;20048;-80
2021/06/13 00:08:42;;;;;;;0.38;0.35;;;;;;;15.24;86.92;98762.19;6152664;23;20021;-79
2021/06/13 00:11:09;;;;;;;0.30;0.30;;;;;;;15.31;86.58;98760.31;6128185;23;20025;-78
2021/06/13 00:13:35;;;;;;;0.30;0.30;;;;;;;15.34;86.21;98756.38;6153889;23;20031;-79
2021/06/13 00:16:01;;;;;;;0.30;0.30;;;;;;;15.40;85.90;98752.84;6152183;23;20017;-81
2021/06/13 00:18:27;;;;;;;0.25;0.25;;;;;;;15.44;85.70;98745.94;6153880;23;20025;-80
2021/06/13 00:20:54;;;;;;;0.30;0.30;;;;;;;15.50;85.48;98752.44;6151801;23;20040;-78
2021/06/13 00:23:20;;;;;;;0.30;0.30;;;;;;;15.50;85.31;98749.69;6153937;23;20029;-78
2021/06/13 00:25:46;;;;;;;0.40;0.40;;;;;;;15.48;85.52;98758.09;6152710;23;20014;-77
2021/06/13 00:28:12;;;;;;;0.20;0.20;;;;;;;15.47;85.18;98745.53;6152680;23;20048;-79
2021/06/13 00:30:38;;;;;;;0.40;0.40;;;;;;;15.53;85.10;98750.13;6154033;23;20455;-79
2021/06/13 00:33:05;;;;;;;0.30;0.30;;;;;;;15.63;84.81;98750.59;6152104;23;20067;-79
2021/06/13 00:35:31;;;;;;;0.30;0.30;;;;;;;15.67;84.48;98751.88;6154397;23;20053;-79
2021/06/13 00:37:57;;;;;;;0.30;0.30;;;;;;;15.73;84.29;98749.41;6154127;23;20336;-79
2021/06/13 00:40:24;;;;;;;0.30;0.30;;;;;;;15.77;84.11;98758.84;6154993;23;20018;-78
2021/06/13 00:42:50;;;;;;;0.30;0.30;;;;;;;15.81;84.39;98754.66;6126761;23;20483;-78
2021/06/13 00:45:17;;;;;;;0.30;0.30;;;;;;;15.84;84.37;98762.41;6153723;23;20138;-80
2021/06/13 00:47:43;;;;;;;0.20;0.20;;;;;;;15.85;84.66;98764.09;6152117;23;20409;-78
2021/06/13 00:50:13;;;;;;;0.30;0.30;;;;;;;15.85;84.73;98753.19;6103092;23;20017;-78
2021/06/13 00:52:40;;;;;;;0.30;0.30;;;;;;;15.87;84.59;98760.13;6127071;23;20444;-76
2021/06/13 00:55:06;;;;;;;0.40;0.40;;;;;;;15.83;84.58;98766.16;6152765;23;20052;-77
2021/06/13 00:57:33;;;;;;;0.77;0.45;;;;;;;15.78;84.78;98757.78;6150998;23;20026;-78
2021/06/13 00:59:59;;;;;;;0.40;0.40;;;;;;;15.66;85.12;98755.66;6151322;23;20021;-78
2021/06/13 01:02:25;;;;;;;0.40;0.40;;;;;;;15.57;85.13;98754.13;6151683;23;20408;-79
2021/06/13 01:04:52;;;;;;;0.40;0.40;;;;;;;15.55;85.32;98758.13;6151217;23;20100;-80
2021/06/13 01:07:35;;;;;;;0.43;0.43;;;;;;;15.49;85.22;98759.75;6153227;23;20044;-83
2021/06/13 01:10:32;;;;;;;0.50;0.50;;;;;;;15.49;85.63;98765.22;6151302;23;20049;-80
2021/06/13 01:13:18;;;;;;;0.45;0.45;;;;;;;15.36;85.72;98765.19;6126505;23;20360;-80
2021/06/13 01:15:58;;;;;;;0.50;0.50;;;;;;;15.24;86.32;98761.34;6154634;23;20025;-80
2021/06/13 01:18:53;;;;;;;0.50;0.50;;;;;;;15.16;86.65;98767.81;6153844;23;20022;-79
2021/06/13 01:21:22;;;;;;;0.57;0.57;;;;;;;15.13;86.76;98766.31;6151970;23;20482;-81
2021/06/13 01:23:58;;;;;;;0.60;0.60;;;;;;;15.13;86.78;98766.31;6101840;23;20437;-80
2021/06/13 01:26:33;;;;;;;0.40;0.40;;;;;;;15.07;87.08;98769.88;6150686;23;20044;-78
2021/06/13 01:29:01;;;;;;;0.45;0.45;;;;;;;15.00;87.12;98769.00;6150384;23;20124;-79
2021/06/13 01:31:35;;;;;;;0.50;0.50;;;;;;;14.97;87.69;98772.13;6150253;23;20021;-79
2021/06/13 01:34:04;;;;;;;0.57;0.50;;;;;;;15.03;87.44;98776.75;6150458;23;20441;-80
2021/06/13 01:36:35;;;;;;;0.68;0.50;;;;;;;15.02;87.39;98769.63;6126308;23;20047;-78
2021/06/13 01:39:05;;;;;;;0.50;0.50;;;;;;;15.00;87.31;98771.72;6126396;23;20061;-78
2021/06/13 01:41:34;;;;;;;0.70;0.70;;;;;;;15.02;87.22;98766.06;6150844;23;20304;-78
2021/06/13 01:44:01;;;;;;;0.80;0.80;;;;;;;15.04;86.90;98767.53;6152416;23;20109;-80
2021/06/13 01:46:31;;;;;;;1.58;1.02;;;;;;;15.05;87.19;98768.38;6152096;23;20029;-79
2021/06/13 01:48:58;;;;;;;0.85;0.85;;;;;;;15.11;86.87;98767.59;6149837;23;20456;-80
2021/06/13 01:51:25;;;;;;;0.85;0.85;;;;;;;15.11;86.56;98768.41;6125596;23;20072;-78
2021/06/13 01:53:52;;;;;;;0.77;0.77;;;;;;;15.15;86.55;98777.88;6150089;23;20032;-80
2021/06/13 01:56:25;;;;;;;1.05;1.05;;;;;;;15.15;86.47;98769.69;6150185;23;20021;-80
2021/06/13 01:58:53;;;;;;;1.13;1.13;;;;;;;15.18;86.29;98769.28;6152015;23;20028;-79
2021/06/13 02:01:37;;;;;;;1.10;1.10;;;;;;;15.18;86.16;98758.41;6129661;23;20033;-80
2021/06/13 02:04:05;;;;;;;1.85;1.17;;;;;;;15.20;86.14;98767.19;6150393;23;20417;-78
2021/06/13 02:06:47;;;;;;;1.95;1.50;;;;;;;15.13;86.37;98755.44;6102886;23;20021;-78
2021/06/13 02:09:19;;;;;;;1.65;1.55;;;;;;;15.12;86.64;98763.81;6150007;23;20679;-80
2021/06/13 02:11:46;;;;;;;1.65;1.55;;;;;;;15.04;86.55;98759.38;6149467;23;20021;-80
2021/06/13 02:14:15;;;;;;;1.73;1.63;;;;;;;15.03;86.93;98749.53;6126442;23;20017;-79
2021/06/13 02:16:47;;;;;;;2.08;1.98;;;;;;;14.91;87.35;98753.84;6126894;23;20025;-80
2021/06/13 02:19:16;;;;;;;2.03;1.92;;;;;;;14.90;87.54;98754.91;6150892;23;20026;-78
2021/06/13 02:21:45;;;;;;;2.00;1.90;;;;;;;14.84;87.43;98755.69;6125325;23;20364;-78
2021/06/13 02:24:16;;;;;;;2.15;2.05;;;;;;;14.84;87.58;98755.69;6151789;23;20104;-79
2021/06/13 02:26:42;;;;;;;1.98;1.88;;;;;;;14.85;87.81;98752.81;6150017;23;20021;-78
2021/06/13 02:29:10;;;;;;;1.88;1.77;;;;;;;14.88;87.35;98751.53;6152916;23;20084;-80
2021/06/13 02:31:40;;;;;;;1.95;1.85;;;;;;;14.89;87.28;98742.34;6152311;23;20018;-79
2021/06/13 02:34:08;;;;;;;1.70;1.60;;;;;;;14.94;86.97;98751.56;6152615;23;20025;-79
2021/06/13 02:36:34;;;;;;;1.80;1.70;;;;;;;14.95;86.87;98744.25;6155738;23;20017;-78
2021/06/13 02:39:07;;;;;;;1.85;1.75;;;;;;;14.97;86.45;98742.19;6130430;23;20017;-79
2021/06/13 02:41:35;;;;;;;1.48;1.38;;;;;;;15.01;86.48;98740.72;6153802;23;20029;-78
2021/06/13 02:44:03;;;;;;;1.60;1.50;;;;;;;15.03;86.33;98738.66;6103882;23;20471;-79
2021/06/13 02:46:35;;;;;;;1.45;1.35;;;;;;;15.11;86.18;98741.19;6124802;23;20095;-79
2021/06/13 02:49:06;;;;;;;1.35;1.30;;;;;;;15.15;85.87;98745.19;6125008;23;20112;-78
2021/06/13 02:51:37;;;;;;;1.50;1.40;;;;;;;15.15;86.12;98750.63;6125249;23;20075;-78
2021/06/13 02:54:08;;;;;;;1.65;1.55;;;;;;;15.14;85.96;98751.69;6125281;23;20104;-79
2021/06/13 02:56:43;;;;;;;1.20;1.20;;;;;;;15.20;85.55;98756.31;6150142;23;20017;-79
2021/06/13 02:59:12;;;;;;;1.10;1.10;;;;;;;15.23;85.52;98743.34;6078944;23;20472;-78
2021/06/13 03:01:48;;;;;;;1.30;1.20;;;;;;;15.30;85.07;98749.66;6124579;23;20056;-79
2021/06/13 03:04:16;;;;;;;1.20;1.20;;;;;;;15.39;84.91;98745.69;6101013;23;20017;-79
2021/06/13 03:06:45;;;;;;;0.93;0.93;;;;;;;15.53;84.46;98754.75;6124885;23;20432;-79
2021/06/13 03:09:11;;;;;;;0.95;0.95;;;;;;;15.63;83.98;98752.47;6148968;23;20578;-80
2021/06/13 03:11:39;;;;;;;0.93;0.93;;;;;;;15.69;83.86;98756.31;6151017;23;20021;-80
2021/06/13 03:14:06;;;;;;;1.10;1.00;;;;;;;15.69;83.77;98754.41;6125308;23;20172;-81
2021/06/13 03:16:33;;;;;;;0.95;0.95;;;;;;;15.73;83.38;98755.69;6149426;23;20017;-78
2021/06/13 03:18:59;;;;;;;0.85;0.80;;;;;;;15.70;83.49;98750.63;6150734;23;20041;-78
2021/06/13 03:21:28;;;;;;;0.88;0.88;;;;;;;15.72;83.41;98758.59;6149761;23;20308;-79
2021/06/13 03:23:56;;;;;;;0.80;0.80;;;;;;;15.69;83.13;98748.97;6149431;23;20048;-79
2021/06/13 03:26:24;;;;;;;0.77;0.77;;;;;;;15.77;83.13;98750.66;6125612;23;20022;-79
2021/06/13 03:28:54;;;;;;;1.00;1.00;;;;;;;16.00;82.29;98751.09;6124527;23;20029;-78
2021/06/13 03:31:21;;;;;;;1.00;1.00;;;;;;;16.30;81.59;98767.03;6150648;23;20019;-78
2021/06/13 03:33:48;;;;;;;0.80;0.80;;;;;;;16.31;81.13;98757.84;6149222;23;20037;-79
2021/06/13 03:36:15;;;;;;;0.80;0.80;;;;;;;16.36;81.21;98758.03;6149796;23;20100;-80
2021/06/13 03:38:42;;;;;;;0.95;0.80;;;;;;;16.46;80.55;98766.63;6150149;23;20018;-80
2021/06/13 03:41:14;;;;;;;0.65;0.60;;;;;;;16.64;80.15;98763.25;6126049;23;20013;-79
2021/06/13 03:43:41;;;;;;;0.68;0.68;;;;;;;16.83;79.26;98761.59;6149378;23;20080;-81
2021/06/13 03:46:08;;;;;;;0.60;0.60;;;;;;;16.81;79.16;98760.94;6149308;23;20121;-80
2021/06/13 03:48:33;;;;;;;0.60;0.60;;;;;;;17.00;78.74;98765.53;6149228;23;20463;-79
2021/06/13 03:51:00;;;;;;;0.68;0.57;;;;;;;17.13;78.12;98769.25;6148862;23;20101;-78
2021/06/13 03:53:26;;;;;;;0.50;0.50;;;;;;;17.18;77.78;98775.75;6124735;23;20429;-77
2021/06/13 03:55:53;;;;;;;0.50;0.50;;;;;;;17.20;78.01;98772.81;6150786;23;20044;-78
2021/06/13 03:58:23;;;;;;;0.60;0.60;;;;;;;17.24;77.52;98768.59;6149527;23;20028;-78
2021/06/13 04:00:51;;;;;;;0.40;0.40;;;;;;;17.25;77.53;98764.78;6148950;23;20474;-78
2021/06/13 04:03:19;;;;;;;0.50;0.50;;;;;;;17.28;77.02;98769.84;6100440;23;20049;-78
2021/06/13 04:05:45;;;;;;;0.40;0.40;;;;;;;17.31;76.93;98766.69;6124877;23;20210;-78
2021/06/13 04:08:13;;;;;;;0.43;0.43;;;;;;;17.46;76.55;98767.22;6124702;23;20021;-79
2021/06/13 04:10:41;;;;;;;0.50;0.50;;;;;;;17.58;76.49;98765.47;6150082;23;20013;-78
2021/06/13 04:13:07;;;;;;;0.50;0.50;;;;;;;17.73;75.58;98761.63;6125879;23;20021;-79
2021/06/13 04:15:33;;;;;;;0.50;0.50;;;;;;;18.06;74.76;98762.28;6150523;23;20021;-79
2021/06/13 04:17:59;;;;;;;0.40;0.40;;;;;;;18.22;74.38;98766.38;6151270;23;20022;-79
2021/06/13 04:20:25;;;;;;;0.40;0.40;;;;;;;18.43;73.38;98769.78;6149809;23;20018;-78
2021/06/13 04:22:51;;;;;;;0.57;0.43;;;;;;;18.53;73.14;98768.19;6151048;23;20021;-79
2021/06/13 04:25:18;;;;;;;0.40;0.40;;;;;;;18.50;72.69;98763.22;6151063;23;20028;-80
2021/06/13 04:27:46;;;;;;;0.40;0.40;;;;;;;18.68;72.89;98770.59;6150442;23;20057;-79
2021/06/13 04:30:12;;;;;;;0.50;0.50;;;;;;;18.82;72.49;98765.84;6149314;23;20026;-80
2021/06/13 04:32:38;;;;;;;0.40;0.40;;;;;;;18.90;71.88;98772.94;6153022;23;20033;-77
2021/06/13 04:35:05;;;;;;;1.17;0.50;;;;;;;18.93;71.94;98765.09;6150960;23;20033;-79
2021/06/13 04:37:32;;;;;;;0.30;0.30;;;;;;;19.13;71.61;98767.66;6152381;23;20085;-80
2021/06/13 04:39:57;;;;;;;0.40;0.40;;;;;;;19.08;71.20;98778.44;6151677;23;20026;-80
2021/06/13 04:42:23;;;;;;;0.30;0.30;;;;;;;19.11;71.33;98774.41;6152729;23;20050;-80
2021/06/13 04:44:49;;;;;;;0.50;0.50;;;;;;;18.96;71.83;98767.41;6153056;23;20435;-80
2021/06/13 04:47:15;;;;;;;0.55;0.43;;;;;;;19.10;71.73;98772.75;6152803;23;20037;-80
2021/06/13 04:49:44;;;;;;;0.70;0.70;;;;;;;19.68;70.18;98761.28;6102909;23;20021;-81
2021/06/13 04:52:13;;;;;;;0.70;0.70;;;;;;;20.32;68.50;98770.66;6154187;23;20036;-78
2021/06/13 04:54:51;;;;;;;0.77;0.77;;;;;;;20.83;66.03;98777.41;6125899;23;20411;-81
2021/06/13 04:57:32;;;;;;;0.60;0.60;;;;;;;21.06;64.93;98764.72;6151274;23;20029;-80
2021/06/13 04:59:57;;;;;;;0.60;0.60;;;;;;;21.31;63.65;98772.69;6152515;23;20022;-77
2021/06/13 05:02:23;;;;;;;0.68;0.68;;;;;;;21.71;63.71;98772.72;6156677;23;20033;-81
2021/06/13 05:04:49;;;;;;;0.70;0.70;;;;;;;22.03;62.40;98769.47;6151447;23;20320;-80
2021/06/13 05:07:15;;;;;;;0.93;0.70;;;;;;;22.36;61.62;98764.03;6152883;23;20017;-78
2021/06/13 05:09:46;;;;;;;0.60;0.60;;;;;;;22.88;59.79;98771.19;6154341;23;20337;-80
2021/06/13 05:12:12;;;;;;;0.70;0.70;;;;;;;23.42;58.44;98770.59;6152220;23;20018;-78
2021/06/13 05:14:39;;;;;;;0.60;0.60;;;;;;;23.63;56.85;98767.00;6154005;23;20069;-79
2021/06/13 05:17:05;;;;;;;0.68;0.68;;;;;;;24.16;55.87;98759.84;6153722;23;20022;-83
2021/06/13 05:19:34;;;;;;;0.60;0.60;;;;;;;24.51;54.62;98772.34;6152139;23;20013;-81
2021/06/13 05:22:05;;;;;;;0.70;0.70;;;;;;;24.58;54.05;98770.19;6153727;23;20026;-81
2021/06/13 05:24:31;;;;;;;0.70;0.70;;;;;;;24.88;51.74;98768.75;6154739;23;20013;-79
2021/06/13 05:26:57;;;;;;;0.70;0.70;;;;;;;24.82;51.94;98761.53;6154568;23;20022;-83
2021/06/13 05:29:25;;;;;;;0.60;0.60;;;;;;;25.11;52.07;98771.13;6154570;23;20036;-81
2021/06/13 05:31:50;;;;;;;0.70;0.70;;;;;;;24.88;52.08;98766.00;6154061;23;20397;-81
2021/06/13 05:34:16;;;;;;;0.60;0.60;;;;;;;24.58;52.48;98781.25;6155135;23;20026;-79
2021/06/13 05:36:42;;;;;;;0.70;0.70;;;;;;;25.10;52.26;98774.16;6154221;23;20017;-82
2021/06/13 05:39:08;;;;;;;0.70;0.70;;;;;;;25.31;51.40;98786.22;6152015;23;20029;-79
2021/06/13 05:41:34;;;;;;;0.65;0.65;;;;;;;25.45;50.63;98785.44;6151533;23;20100;-79
2021/06/13 05:44:02;;;;;;;0.75;0.75;;;;;;;25.62;49.44;98770.56;6155381;23;20018;-80
2021/06/13 05:46:36;;;;;;;0.80;0.80;;;;;;;25.62;50.35;98779.69;6152992;23;20018;-81
2021/06/13 05:49:02;;;;;;;0.70;0.70;;;;;;;25.73;50.39;98778.63;6153257;23;20021;-82
2021/06/13 05:51:28;;;;;;;0.70;0.70;;;;;;;25.50;48.77;98784.63;6130047;23;20481;-80
2021/06/13 05:54:04;;;;;;;0.70;0.70;;;;;;;25.32;47.34;98776.78;6104969;23;20037;-80
2021/06/13 05:56:34;;;;;;;0.77;0.77;;;;;;;25.79;47.22;98778.69;6154942;23;20029;-82
2021/06/13 05:59:08;;;;;;;0.70;0.70;;;;;;;25.82;47.73;98778.16;6156123;23;20025;-80
2021/06/13 06:01:34;;;;;;;0.70;0.70;;;;;;;25.82;47.96;98776.22;6156383;23;20033;-80
2021/06/13 06:04:07;;;;;;;0.82;0.82;;;;;;;26.64;47.24;98777.16;6153535;23;20447;-81
2021/06/13 06:06:34;;;;;;;0.70;0.70;;;;;;;26.91;46.49;98770.47;6152512;23;20021;-82
2021/06/13 06:09:05;;;;;;;0.80;0.80;;;;;;;27.68;44.83;98770.25;6129776;23;20155;-80
2021/06/13 06:11:39;;;;;;;0.70;0.70;;;;;;;27.87;43.70;98776.88;6154365;23;20017;-82
2021/06/13 06:14:09;;;;;;;0.80;0.80;;;;;;;27.68;43.62;98775.81;6082376;23;20045;-80
2021/06/13 06:16:35;;;;;;;0.80;0.80;;;;;;;27.37;43.25;98778.72;6156372;23;20021;-80
2021/06/13 06:19:09;;;;;;;0.80;0.80;;;;;;;28.11;42.84;98780.63;6132652;23;20081;-81
2021/06/13 06:21:49;;;;;;;0.90;0.90;;;;;;;28.64;41.60;98773.59;6154980;23;20025;-86
2021/06/13 06:24:21;;;;;;;0.90;0.90;;;;;;;27.53;42.75;98772.00;6131371;23;20025;-83
2021/06/13 06:26:52;;;;;;;0.80;0.80;;;;;;;27.67;44.32;98771.38;6135507;23;20021;-81
2021/06/13 06:29:21;;;;;;;0.90;0.90;;;;;;;27.49;44.12;98775.63;6154588;23;20022;-81
2021/06/13 06:31:47;;;;;;;0.90;0.90;;;;;;;27.29;45.07;98773.78;6106678;23;20056;-81
2021/06/13 06:34:15;;;;;;;0.90;0.90;;;;;;;27.45;44.18;98775.38;6155988;23;20017;-79
2021/06/13 06:37:09;;;;;;;0.90;0.90;;;;;;;27.73;43.60;98770.25;6160739;23;20025;-80
2021/06/13 06:39:41;;;;;;;0.90;0.90;;;;;;;27.84;43.01;98780.22;6140412;23;20013;-80
2021/06/13 06:42:17;;;;;;;1.00;1.00;;;;;;;28.34;41.90;98792.16;6140067;23;20045;-82
2021/06/13 06:44:58;;;;;;;0.95;0.95;;;;;;;28.43;42.47;98776.53;6119780;23;20017;-80
2021/06/13 06:47:35;;;;;;;1.00;1.00;;;;;;;28.85;41.41;98783.44;6173285;23;20052;-83
2021/06/13 06:50:10;;;;;;;0.90;0.90;;;;;;;29.41;41.00;98788.44;6162805;23;20021;-81
2021/06/13 06:52:47;;;;;;;1.00;1.00;;;;;;;28.74;42.12;98779.06;6158587;23;20017;-79
2021/06/13 06:55:17;;;;;;;1.00;1.00;;;;;;;29.12;39.61;98790.44;6109992;23;20108;-82
2021/06/13 06:57:48;;;;;;;1.10;1.10;;;;;;;29.38;39.26;98789.03;6137591;23;20039;-81
2021/06/13 07:00:17;;;;;;;1.00;1.00;;;;;;;30.09;38.50;98792.03;6161774;23;20455;-82
2021/06/13 07:02:45;;;;;;;1.00;1.00;;;;;;;30.78;37.06;98792.41;6134807;23;20024;-82
2021/06/13 07:05:13;;;;;;;1.10;1.10;;;;;;;30.41;37.60;98800.50;6157710;23;20340;-81
2021/06/13 07:07:40;;;;;;;1.15;1.15;;;;;;;30.51;36.61;98800.34;6132818;23;20440;-82
2021/06/13 07:10:09;;;;;;;1.20;1.20;;;;;;;31.07;36.19;98794.97;6161943;23;20108;-81
2021/06/13 07:12:35;;;;;;;1.25;1.25;;;;;;;31.16;36.75;98791.19;6155541;23;20455;-80
2021/06/13 07:15:01;;;;;;;1.20;1.20;;;;;;;31.64;35.90;98792.78;6163019;23;20048;-81
2021/06/13 07:17:29;;;;;;;1.10;1.10;;;;;;;32.22;35.46;98797.69;6157413;23;20021;-82
2021/06/13 07:19:55;;;;;;;1.20;1.20;;;;;;;32.26;35.32;98787.53;6132941;23;20122;-81
2021/06/13 07:22:24;;;;;;;1.10;1.10;;;;;;;30.40;37.61;98787.72;6132297;23;20021;-84
2021/06/13 07:24:52;;;;;;;1.10;1.10;;;;;;;29.95;38.20;98787.22;6134099;23;20089;-81
2021/06/13 07:27:20;;;;;;;1.10;1.10;;;;;;;30.37;37.28;98796.69;6161562;23;20021;-83
2021/06/13 07:29:46;;;;;;;1.10;1.10;;;;;;;30.14;37.59;98789.19;6131349;23;20375;-81
2021/06/13 07:32:12;;;;;;;1.05;1.05;;;;;;;29.98;37.79;98797.78;6105538;23;20028;-83
2021/06/13 07:34:38;;;;;;;1.10;1.10;;;;;;;30.88;36.31;98793.06;6130786;23;20104;-81
2021/06/13 07:37:06;;;;;;;1.20;1.20;;;;;;;30.40;35.90;98793.28;6154223;23;20021;-83
2021/06/13 07:39:32;;;;;;;1.10;1.10;;;;;;;30.84;35.50;98792.03;6154491;23;20053;-81
2021/06/13 07:41:59;;;;;;;1.20;1.20;;;;;;;31.04;35.31;98790.84;6159030;23;20044;-84
2021/06/13 07:44:26;;;;;;;1.20;1.20;;;;;;;30.36;35.85;98800.59;6163129;23;20025;-84
2021/06/13 07:46:53;;;;;;;1.10;1.10;;;;;;;30.23;37.09;98799.38;6139506;23;20522;-83
2021/06/13 07:49:19;;;;;;;1.20;1.20;;;;;;;30.25;36.35;98801.91;6159374;23;20480;-80
2021/06/13 07:51:45;;;;;;;1.30;1.30;;;;;;;30.43;36.05;98797.44;6158336;23;20025;-81
2021/06/13 07:54:11;;;;;;;1.33;1.33;;;;;;;30.81;35.98;98789.84;6161897;23;20105;-84
2021/06/13 07:56:38;;;;;;;1.30;1.30;;;;;;;30.89;36.00;98797.53;6158096;23;20021;-82
2021/06/13 07:59:04;;;;;;;1.30;1.30;;;;;;;31.93;34.72;98793.31;6164282;23;20024;-81
2021/06/13 08:01:30;;;;;;;0.50;0.50;;;;;;;31.34;35.53;98783.88;6137953;23;20017;-82
2021/06/13 08:03:58;;;;;;;1.20;1.20;;;;;;;31.10;35.27;98780.41;6113843;23;20029;-83
2021/06/13 08:06:24;;;;;;;1.20;1.20;;;;;;;30.61;35.65;98795.75;6118030;23;20017;-84
2021/06/13 08:08:52;;;;;;;1.20;1.20;;;;;;;31.23;34.93;98790.78;6163188;23;20045;-82
2021/06/13 08:11:19;;;;;;;1.30;1.30;;;;;;;31.96;33.76;98788.22;6162348;23;20365;-83
2021/06/13 08:13:44;;;;;;;1.20;1.20;;;;;;;30.87;35.25;98802.59;6166370;23;20043;-81
2021/06/13 08:16:10;;;;;;;1.02;1.02;;;;;;;29.90;36.59;98790.06;6189654;23;20017;-83
2021/06/13 08:18:37;;;;;;;1.40;1.40;;;;;;;29.40;36.03;98792.34;6162634;23;20100;-82
2021/06/13 08:21:03;;;;;;;1.42;1.42;;;;;;;29.59;35.76;98799.97;6163265;23;20113;-83
2021/06/13 08:23:31;;;;;;;1.50;1.50;;;;;;;30.78;35.41;98798.00;6164028;23;20025;-84
2021/06/13 08:25:58;;;;;;;1.30;1.30;;;;;;;30.50;35.93;98804.28;6163565;23;20033;-84
2021/06/13 08:28:25;;;;;;;1.38;1.38;;;;;;;31.41;34.33;98798.28;6116778;23;20052;-82
2021/06/13 08:30:54;;;;;;;1.35;1.35;;;;;;;32.17;33.75;98792.22;6138022;23;20001;-84
2021/06/13 08:33:21;;;;;;;1.30;1.30;;;;;;;33.00;32.40;98800.31;6187546;23;20085;-83
2021/06/13 08:35:47;;;;;;;1.30;1.30;;;;;;;33.19;32.34;98786.09;6163815;23;20017;-84
2021/06/13 08:38:13;;;;;;;1.23;1.23;;;;;;;32.16;33.40;98791.38;6164763;23;20447;-83
2021/06/13 08:40:39;;;;;;;1.40;1.40;;;;;;;30.77;34.85;98790.78;6165108;23;20083;-82
2021/06/13 08:43:06;;;;;;;1.40;1.40;;;;;;;30.53;34.80;98797.25;6113665;23;20076;-82
2021/06/13 08:45:34;;;;;;;1.40;1.40;;;;;;;31.05;34.46;98789.72;6161068;23;20021;-83
2021/06/13 08:48:01;;;;;;;1.30;1.30;;;;;;;31.10;34.10;98794.38;6160426;23;20026;-82
2021/06/13 08:50:29;;;;;;;1.33;1.33;;;;;;;31.23;33.31;98790.78;6141892;23;20029;-84
2021/06/13 08:52:58;;;;;;;1.40;1.40;;;;;;;32.05;33.29;98798.34;6168458;23;20025;-85
2021/06/13 08:55:30;;;;;;;1.40;1.40;;;;;;;31.65;34.08;98786.06;6146973;23;20025;-83
2021/06/13 08:57:56;;;;;;;1.40;1.40;;;;;;;32.32;32.51;98808.63;6142106;23;20080;-83
2021/06/13 09:00:26;;;;;;;1.00;1.00;;;;;;;31.55;33.14;98797.44;6171053;23;20002;-81
2021/06/13 09:02:53;;;;;;;1.30;1.30;;;;;;;31.41;34.04;98795.50;6116401;23;20084;-82
2021/06/13 09:05:22;;;;;;;1.38;1.38;;;;;;;32.15;32.38;98797.31;6167378;23;20074;-81
2021/06/13 09:07:49;;;;;;;1.30;1.30;;;;;;;33.26;30.94;98798.47;6144168;23;20073;-81
2021/06/13 09:10:22;;;;;;;1.23;1.23;;;;;;;31.96;33.13;98793.81;6176046;23;20017;-83
2021/06/13 09:12:49;;;;;;;1.20;1.20;;;;;;;32.26;32.06;98793.13;6118125;23;20037;-82
2021/06/13 09:15:23;;;;;;;1.50;1.42;;;;;;;32.12;32.45;98795.13;6162617;23;20021;-84
2021/06/13 09:17:49;;;;;;;1.20;1.20;;;;;;;31.21;33.58;98788.28;6139832;23;20041;-81
2021/06/13 09:20:30;;;;;;;1.10;1.10;;;;;;;32.69;31.44;98798.28;6136520;23;20020;-83
2021/06/13 09:23:09;;;;;;;1.10;1.10;;;;;;;33.60;30.91;98780.19;6166906;23;20025;-82
2021/06/13 09:25:37;;;;;;;1.20;1.20;;;;;;;33.62;30.60;98774.28;6162936;23;20021;-84
2021/06/13 09:28:12;;;;;;;1.10;1.10;;;;;;;31.41;32.63;98772.28;6167061;23;20025;-83
2021/06/13 09:30:48;;;;;;;1.10;1.10;;;;;;;31.63;31.79;98764.03;6089294;23;20025;-83
2021/06/13 09:33:19;;;;;;;1.20;1.20;;;;;;;32.63;31.65;98779.97;6163136;23;20350;-82
2021/06/13 09:35:47;;;;;;;1.20;1.20;;;;;;;31.62;32.99;98764.31;6156680;23;20025;-84
2021/06/13 09:38:19;;;;;;;1.20;1.20;;;;;;;32.12;32.32;98764.38;6159979;23;20021;-82
2021/06/13 09:40:51;;;;;;;;;;;;;;;32.72;31.19;98780.84;6163882;23;20033;-84
2021/06/13 09:43:27;;;;;;;1.20;1.20;;;;;;;32.50;30.76;98780.84;6138473;23;19967;-83
2021/06/13 09:45:59;;;;;;;1.10;1.10;;;;;;;32.47;31.05;98782.31;6115840;23;20112;-84
2021/06/13 09:48:29;;;;;;;1.10;1.10;;;;;;;34.07;29.42;98772.06;6165700;23;20022;-83
2021/06/13 09:51:04;;;;;;;1.02;1.02;;;;;;;33.81;29.13;98775.63;6117725;23;20022;-84
2021/06/13 09:53:36;;;;;;;1.05;1.05;;;;;;;33.49;29.92;98773.22;6134685;23;20028;-84
2021/06/13 09:56:13;;;;;;;1.10;1.10;;;;;;;33.81;29.38;98772.81;6156693;23;20062;-85
2021/06/13 09:59:03;;;;;;;1.10;1.10;;;;;;;34.42;28.85;98774.91;6156255;23;20022;-83
2021/06/13 10:01:48;;;;;;;1.00;1.00;;;;;;;33.20;29.67;98771.75;6107707;23;20441;-83
2021/06/13 10:04:36;;;;;;;1.10;1.10;;;;;;;34.68;28.21;98770.13;6108915;23;20021;-85
2021/06/13 10:07:15;;;;;;;1.20;1.20;;;;;;;34.68;29.05;98770.13;6092066;23;20025;-82
2021/06/13 10:09:50;;;;;;;1.20;1.20;;;;;;;33.13;30.04;98763.84;6140215;23;20073;-84
2021/06/13 10:12:44;;;;;;;1.40;1.40;;;;;;;32.76;31.00;98751.03;6139624;23;20040;-83
2021/06/13 10:15:14;;;;;;;1.30;1.30;;;;;;;33.89;29.20;98756.34;6166864;23;20236;-84
2021/06/13 10:18:16;;;;;;;1.20;1.20;;;;;;;32.59;31.67;98771.38;6167580;23;20025;-82
2021/06/13 10:21:11;;;;;;;0.10;0.10;;;;;;;31.52;32.73;98750.56;6142650;23;20017;-80
2021/06/13 10:23:54;;;;;;;1.30;1.30;;;;;;;31.43;32.27;98759.66;6140193;23;20025;-84
2021/06/13 10:27:30;;;;;;;0.45;0.45;;;;;;;30.64;33.34;98747.69;6180668;23;20021;-82
2021/06/13 10:30:23;;;;;;;0.10;0.10;;;;;;;28.89;36.09;98744.69;6115947;23;20025;-81
2021/06/13 10:32:48;;;;;;;;;;;;;;;30.36;33.92;98757.94;6131837;23;20021;-83
2021/06/13 10:35:16;;;;;;;1.25;1.25;;;;;;;31.91;32.07;98753.63;6161820;23;19920;-83
2021/06/13 10:37:47;;;;;;;1.15;1.15;;;;;;;31.88;31.89;98753.44;6163038;23;20100;-81
2021/06/13 10:40:13;;;;;;;1.20;1.20;;;;;;;32.17;32.14;98756.66;6138063;23;20353;-83
2021/06/13 10:42:42;;;;;;;1.05;1.05;;;;;;;31.01;33.62;98774.72;6113879;23;20083;-83
2021/06/13 10:45:14;;;;;;;0.10;0.10;;;;;;;28.99;35.87;98764.94;6164020;23;20436;-84
2021/06/13 10:48:08;;;;;;;0.15;0.15;;;;;;;28.82;37.25;98765.38;6110454;23;20479;-84
2021/06/13 10:50:39;;;;;;;0.20;0.20;;;;;;;29.89;36.07;98754.16;6137302;23;20028;-84
2021/06/13 10:53:10;;;;;;;0.10;0.10;;;;;;;28.42;38.30;98749.88;6160690;23;20044;-84
2021/06/13 10:55:53;;;;;;;0.10;0.10;;;;;;;27.92;39.07;98768.50;6161370;23;20085;-85
2021/06/13 10:58:46;;;;;;;0.10;0.10;;;;;;;26.93;40.63;98784.91;6136325;23;20019;-84
2021/06/13 11:01:26;;;;;;;0.10;0.10;;;;;;;26.06;42.39;98775.69;6117201;23;20054;-84
2021/06/13 11:04:03;;;;;;;0.20;0.20;;;;;;;26.49;42.62;98770.78;6136630;23;20116;-81
2021/06/13 11:06:38;;;;;;;0.10;0.10;;;;;;;26.21;43.55;98771.00;6161004;23;20025;-85
2021/06/13 11:09:06;;;;;;;0.13;0.13;;;;;;;26.07;44.25;98772.66;6135984;23;20295;-84
2021/06/13 11:11:39;;;;;;;0.20;0.20;;;;;;;27.11;42.76;98775.16;6162744;23;20024;-83
2021/06/13 11:14:26;;;;;;;0.10;0.10;;;;;;;27.24;42.13;98771.00;6157069;23;20108;-84
2021/06/13 11:16:54;;;;;;;0.10;0.10;;;;;;;27.41;41.01;98757.63;6158419;23;20024;-83
2021/06/13 11:19:26;;;;;;;0.30;0.30;;;;;;;27.62;40.28;98775.84;6185145;23;20039;-83
2021/06/13 11:22:31;;;;;;;0.30;0.30;;;;;;;28.36;39.41;98771.28;6157033;23;20037;-82
2021/06/13 11:24:59;;;;;;;1.30;1.30;;;;;;;29.78;36.54;98771.00;6153414;23;20021;-84
2021/06/13 11:27:30;;;;;;;1.30;1.30;;;;;;;30.28;36.15;98773.41;6156219;23;20029;-82
2021/06/13 11:30:08;;;;;;;1.30;1.30;;;;;;;31.03;35.24;98788.34;6115244;23;20021;-83
2021/06/13 11:32:52;;;;;;;1.27;1.27;;;;;;;29.85;36.28;98786.53;6153473;23;20033;-83
2021/06/13 11:35:29;;;;;;;1.30;1.30;;;;;;;30.38;34.94;98781.59;6153242;23;20026;-82
2021/06/13 11:38:19;;;;;;;1.33;1.33;;;;;;;30.15;33.88;98786.09;6107978;23;20022;-83
2021/06/13 11:40:50;;;;;;;1.30;1.30;;;;;;;30.00;34.73;98783.53;6150112;23;20025;-84
2021/06/13 11:43:19;;;;;;;1.30;1.30;;;;;;;29.99;36.19;98779.94;6158923;23;20021;-83
2021/06/13 11:45:53;;;;;;;0.40;0.40;;;;;;;28.33;39.80;98780.19;6156401;23;20053;-83
2021/06/13 11:48:30;;;;;;;0.80;0.80;;;;;;;28.36;39.80;98784.34;6155867;23;20021;-84
2021/06/13 11:51:02;;;;;;;0.47;0.47;;;;;;;27.49;42.06;98786.72;6109695;23;20021;-83